createdAt,value
2019-04-06T08:13:17.405Z,9.49
2019-04-06T08:18:21.707Z,9.63
2019-04-06T08:23:25.849Z,9.52
2019-04-06T08:28:30.080Z,9.81
2019-04-06T08:33:34.072Z,9.89
2019-04-06T08:38:38.347Z,10.48
2019-04-06T08:43:42.533Z,10.76
2019-04-06T08:48:46.533Z,10.89
2019-04-06T08:53:50.737Z,10.69
2019-04-06T08:58:57.186Z,10.56
2019-04-06T09:04:01.307Z,10.76
2019-04-06T09:09:06.712Z,11.21
2019-04-06T09:14:11.271Z,10.74
2019-04-06T09:19:15.313Z,11.41
2019-04-06T09:24:19.339Z,11.84
2019-04-06T09:29:24.596Z,11.67
2019-04-06T09:34:30.980Z,11.96
2019-04-06T09:39:35.187Z,11.71
2019-04-06T09:44:39.276Z,11.60
2019-04-06T09:49:43.586Z,12.21
2019-04-06T09:54:47.672Z,11.46
2019-04-06T09:59:51.817Z,11.19
2019-04-06T10:04:55.912Z,11.59
2019-04-06T10:10:02.699Z,11.94
2019-04-06T10:15:07.033Z,12.33
2019-04-06T10:20:11.192Z,12.31
2019-04-06T10:25:15.468Z,12.34
2019-04-06T10:30:19.906Z,12.84
2019-04-06T10:35:24.170Z,12.28
2019-04-06T10:40:28.233Z,11.85
2019-04-06T10:45:32.411Z,11.73
2019-04-06T10:50:36.819Z,10.98
2019-04-06T10:55:40.926Z,11.49
2019-04-06T11:00:45.085Z,11.87
2019-04-06T11:05:49.131Z,11.70
2019-04-06T11:10:53.192Z,12.27
2019-04-06T11:15:57.205Z,12.49
2019-04-06T11:21:01.378Z,12.34
2019-04-06T11:26:05.652Z,12.64
2019-04-06T11:31:12.696Z,13.04
2019-04-06T11:36:16.691Z,13.29
2019-04-06T11:41:20.831Z,12.05
2019-04-06T11:46:24.905Z,11.34
2019-04-06T11:51:28.966Z,11.77
2019-04-06T11:56:33.924Z,11.25
2019-04-06T12:01:38.022Z,11.12
2019-04-06T12:06:42.013Z,12.34
2019-04-06T12:11:46.141Z,12.34
2019-04-06T12:16:50.152Z,12.08
2019-04-06T12:21:54.152Z,11.48
2019-04-06T12:26:58.623Z,12.01
2019-04-06T12:32:02.791Z,11.48
2019-04-06T12:37:06.835Z,11.37
2019-04-06T12:42:10.852Z,11.17
2019-04-06T12:47:15.037Z,11.28
2019-04-06T12:52:19.270Z,11.40
2019-04-06T12:57:23.351Z,11.57
2019-04-06T13:02:27.332Z,11.81
2019-04-06T13:07:32.630Z,11.77
2019-04-06T13:12:36.712Z,11.78
2019-04-06T13:17:40.773Z,11.94
2019-04-06T13:22:44.966Z,12.10
2019-04-06T13:27:49.347Z,11.82
2019-04-06T13:32:53.705Z,11.82
2019-04-06T13:37:57.746Z,11.89
2019-04-06T13:43:01.751Z,12.00
2019-04-06T13:48:06.086Z,12.13
2019-04-06T13:53:11.752Z,12.39
2019-04-06T13:58:15.852Z,12.11
2019-04-06T14:03:19.852Z,12.18
2019-04-06T14:08:24.030Z,12.17
2019-04-06T14:13:28.111Z,11.60
2019-04-06T14:18:32.182Z,11.66
2019-04-06T14:23:36.507Z,11.63
